createdAt,value
2023-05-10T00:01:14.947Z,91778.28
2023-05-10T00:03:41.910Z,91771.69
2023-05-10T00:06:08.592Z,91775.28
2023-05-10T00:08:35.237Z,91766.41
2023-05-10T00:11:01.893Z,91776.16
2023-05-10T00:13:28.732Z,91770.50
2023-05-10T00:15:55.489Z,91769.50
2023-05-10T00:18:22.102Z,91765.63
2023-05-10T00:20:49.813Z,91758.44
2023-05-10T00:23:16.495Z,91760.88
2023-05-10T00:25:43.184Z,91768.31
2023-05-10T00:28:09.841Z,91759.53
2023-05-10T00:30:36.534Z,91763.19
2023-05-10T00:33:03.961Z,91765.13
2023-05-10T00:35:30.739Z,91772.38
2023-05-10T00:37:57.488Z,91764.69
2023-05-10T00:40:24.176Z,91763.22
2023-05-10T00:42:50.925Z,91770.34
2023-05-10T00:45:17.562Z,91767.88
2023-05-10T00:47:44.209Z,91759.88
2023-05-10T00:50:11.053Z,91761.19
2023-05-10T00:52:37.677Z,91760.09
2023-05-10T00:55:05.117Z,91753.38
2023-05-10T00:57:31.896Z,91762.91
2023-05-10T00:59:58.850Z,91762.50
2023-05-10T01:02:25.628Z,91768.56
2023-05-10T01:04:53.005Z,91767.63
2023-05-10T01:07:19.917Z,91772.25
2023-05-10T01:09:46.592Z,91773.25
2023-05-10T01:12:13.285Z,91769.81
2023-05-10T01:14:40.019Z,91769.03
2023-05-10T01:17:07.057Z,91771.03
2023-05-10T01:19:35.976Z,91779.78
2023-05-10T01:22:32.562Z,91771.47
2023-05-10T01:25:05.065Z,91772.91
2023-05-10T01:27:59.449Z,91777.75
2023-05-10T01:30:34.902Z,91777.59
2023-05-10T01:33:27.857Z,91768.50
2023-05-10T01:36:09.951Z,91767.66
2023-05-10T01:38:50.984Z,91769.59
2023-05-10T01:41:27.716Z,91768.06
2023-05-10T01:44:06.639Z,91768.00
2023-05-10T01:46:38.489Z,91759.25
2023-05-10T01:49:09.586Z,91764.97
2023-05-10T01:51:41.772Z,91767.13
2023-05-10T01:54:08.322Z,91769.97
2023-05-10T01:56:34.994Z,91768.38
2023-05-10T01:59:02.392Z,91765.44
2023-05-10T02:01:29.216Z,91764.78
2023-05-10T02:03:56.354Z,91773.31
2023-05-10T02:06:23.073Z,91763.16
2023-05-10T02:08:50.452Z,91764.63
2023-05-10T02:11:17.149Z,91763.75
2023-05-10T02:13:44.544Z,91764.97
2023-05-10T02:16:11.166Z,91764.25
2023-05-10T02:18:37.869Z,91767.38
2023-05-10T02:21:04.559Z,91761.91
2023-05-10T02:23:31.282Z,91765.78
2023-05-10T02:25:58.019Z,91755.75
2023-05-10T02:28:24.830Z,91761.31
2023-05-10T02:30:52.055Z,91758.84
2023-05-10T02:33:19.080Z,91757.31
2023-05-10T02:35:45.846Z,91755.91
2023-05-10T02:38:12.822Z,91754.22
2023-05-10T02:40:39.462Z,91747.47
2023-05-10T02:43:06.159Z,91757.88
2023-05-10T02:45:32.859Z,91751.56
2023-05-10T02:47:59.649Z,91749.84
2023-05-10T02:50:27.853Z,91753.75
2023-05-10T02:52:57.439Z,91755.09
2023-05-10T02:55:26.661Z,91751.06
2023-05-10T02:57:55.390Z,91753.91
2023-05-10T03:00:22.081Z,91756.47
2023-05-10T03:02:48.797Z,91751.75
2023-05-10T03:05:15.559Z,91758.03
2023-05-10T03:07:42.225Z,91759.47
2023-05-10T03:10:09.098Z,91758.56
2023-05-10T03:13:13.416Z,91759.13
2023-05-10T03:15:55.893Z,91758.00
2023-05-10T03:18:24.057Z,91759.22
2023-05-10T03:20:56.591Z,91748.66
2023-05-10T03:23:52.624Z,91747.06
2023-05-10T03:26:27.651Z,91748.47
2023-05-10T03:28:54.330Z,91756.41
2023-05-10T03:31:21.091Z,91749.69
2023-05-10T03:33:49.347Z,91747.31
2023-05-10T03:36:15.984Z,91748.88
2023-05-10T03:38:42.842Z,91747.25
2023-05-10T03:41:09.500Z,91750.53
2023-05-10T03:43:37.620Z,91750.41
2023-05-10T03:46:04.738Z,91758.16
2023-05-10T03:48:31.740Z,91749.25
2023-05-10T03:50:58.414Z,91748.97
2023-05-10T03:53:25.279Z,91760.59
2023-05-10T03:55:52.038Z,91758.97
2023-05-10T03:58:19.394Z,91759.53
2023-05-10T04:00:46.525Z,91760.03
2023-05-10T04:03:13.400Z,91758.31
2023-05-10T04:05:40.375Z,91761.81
2023-05-10T04:08:07.132Z,91759.03
2023-05-10T04:10:33.804Z,91767.25
2023-05-10T04:13:00.663Z,91759.53
2023-05-10T04:15:27.314Z,91759.16
2023-05-10T04:17:54.832Z,91763.41
2023-05-10T04:20:21.498Z,91768.34
2023-05-10T04:22:48.133Z,91768.53
2023-05-10T04:25:14.902Z,91762.50
2023-05-10T04:27:41.601Z,91771.66
2023-05-10T04:30:08.708Z,91765.34
2023-05-10T04:32:35.464Z,91764.03
2023-05-10T04:35:04.571Z,91769.56
2023-05-10T04:37:31.428Z,91768.47
2023-05-10T04:39:58.078Z,91771.97
2023-05-10T04:42:24.637Z,91760.00
2023-05-10T04:44:53.115Z,91765.63
2023-05-10T04:47:19.999Z,91772.88
2023-05-10T04:49:46.679Z,91766.16
2023-05-10T04:52:13.362Z,91771.97
2023-05-10T04:54:40.280Z,91761.78
2023-05-10T04:57:06.966Z,91766.75
2023-05-10T04:59:33.635Z,91760.75
2023-05-10T05:02:00.370Z,91753.09
2023-05-10T05:04:27.031Z,91755.88
2023-05-10T05:06:54.074Z,91769.44
2023-05-10T05:09:20.977Z,91770.91
2023-05-10T05:11:47.666Z,91765.78
2023-05-10T05:14:14.276Z,91771.81
2023-05-10T05:16:40.990Z,91765.75
2023-05-10T05:19:07.670Z,91770.69
2023-05-10T05:21:34.419Z,91767.59
2023-05-10T05:24:01.776Z,91764.97
2023-05-10T05:26:28.599Z,91771.16
2023-05-10T05:28:55.706Z,91774.66
2023-05-10T05:31:22.664Z,91768.91
2023-05-10T05:33:49.302Z,91768.94
2023-05-10T05:36:15.963Z,91776.53
2023-05-10T05:38:43.027Z,91771.13
2023-05-10T05:41:09.618Z,91776.34
2023-05-10T05:43:38.203Z,91775.53
2023-05-10T05:46:05.494Z,91772.69
2023-05-10T05:48:32.319Z,91781.56
2023-05-10T05:50:59.067Z,91791.66
2023-05-10T05:53:25.860Z,91785.38
2023-05-10T05:55:56.405Z,91788.97
2023-05-10T05:58:23.557Z,91789.50
2023-05-10T06:00:50.377Z,91804.00
2023-05-10T06:03:17.344Z,91791.97
2023-05-10T06:05:44.070Z,91789.56
2023-05-10T06:08:10.850Z,91793.66
2023-05-10T06:10:37.861Z,91790.94
2023-05-10T06:13:04.619Z,91790.50
2023-05-10T06:15:31.337Z,91790.63
2023-05-10T06:17:58.043Z,91789.91
2023-05-10T06:20:24.721Z,91794.28
2023-05-10T06:22:51.391Z,91796.66
2023-05-10T06:25:19.268Z,91794.63
2023-05-10T06:27:49.809Z,91793.31
2023-05-10T06:30:18.619Z,91805.06
2023-05-10T06:32:46.242Z,91806.31
2023-05-10T06:35:12.988Z,91808.81
2023-05-10T06:37:39.885Z,91810.38
2023-05-10T06:40:07.552Z,91813.25
2023-05-10T06:42:34.237Z,91813.19
2023-05-10T06:45:01.030Z,91822.91
2023-05-10T06:47:27.779Z,91813.75
2023-05-10T06:49:54.648Z,91819.41
2023-05-10T06:52:21.239Z,91818.00
2023-05-10T06:54:47.888Z,91817.28
2023-05-10T06:57:27.566Z,91806.69
2023-05-10T06:59:58.040Z,91815.22
2023-05-10T07:02:24.671Z,91820.34
2023-05-10T07:04:53.148Z,91819.13
2023-05-10T07:07:20.106Z,91823.50
2023-05-10T07:09:46.797Z,91819.53
2023-05-10T07:12:15.392Z,91811.97
2023-05-10T07:14:43.011Z,91814.66
2023-05-10T07:17:09.986Z,91816.22
2023-05-10T07:19:37.032Z,91817.47
2023-05-10T07:22:03.852Z,91825.09
2023-05-10T07:24:30.927Z,91821.44
2023-05-10T07:26:57.626Z,91823.06
2023-05-10T07:29:24.285Z,91829.09
2023-05-10T07:31:51.186Z,91821.94
2023-05-10T07:34:17.887Z,91832.81
2023-05-10T07:36:44.687Z,91827.97
2023-05-10T07:39:12.707Z,91835.13
2023-05-10T07:41:43.088Z,91826.38
2023-05-10T07:44:09.753Z,91833.16
2023-05-10T07:46:36.485Z,91839.66
2023-05-10T07:49:03.275Z,91819.22
2023-05-10T07:51:29.992Z,91820.78
2023-05-10T07:53:56.673Z,91829.31
2023-05-10T07:56:28.119Z,91839.16
2023-05-10T07:58:55.437Z,91835.56
2023-05-10T08:01:22.239Z,91830.22
2023-05-10T08:03:49.283Z,91828.28
2023-05-10T08:06:16.548Z,91837.97
2023-05-10T08:08:43.384Z,91825.53
2023-05-10T08:11:10.189Z,91831.50
2023-05-10T08:13:36.800Z,91831.47
2023-05-10T08:16:03.540Z,91834.00
2023-05-10T08:18:30.461Z,91847.19
2023-05-10T08:20:57.154Z,91838.38
2023-05-10T08:23:23.853Z,91843.50
2023-05-10T08:25:50.575Z,91837.22
2023-05-10T08:28:17.242Z,91847.81
2023-05-10T08:30:43.951Z,91843.50
2023-05-10T08:33:10.759Z,91838.59
2023-05-10T08:35:37.527Z,91844.28
2023-05-10T08:38:04.390Z,91837.75
2023-05-10T08:40:31.086Z,91847.28
2023-05-10T08:43:08.280Z,91846.75
2023-05-10T08:45:38.625Z,91848.38
2023-05-10T08:48:06.730Z,91852.50
2023-05-10T08:50:33.477Z,91855.28
2023-05-10T08:53:02.168Z,91857.75
2023-05-10T08:55:28.922Z,91860.53
2023-05-10T08:57:55.876Z,91850.84
2023-05-10T09:00:24.080Z,91858.81
2023-05-10T09:02:51.298Z,91849.66
2023-05-10T09:05:18.937Z,91862.66
2023-05-10T09:07:45.966Z,91864.41
2023-05-10T09:10:12.604Z,91864.88
2023-05-10T09:12:39.383Z,91864.41
2023-05-10T09:15:07.171Z,91871.16
2023-05-10T09:17:33.977Z,91877.56
2023-05-10T09:20:01.325Z,91873.34
2023-05-10T09:22:28.296Z,91874.72
2023-05-10T09:25:14.594Z,91866.56
2023-05-10T09:27:42.261Z,91868.13
2023-05-10T09:30:09.562Z,91863.16
2023-05-10T09:32:48.149Z,91859.91
2023-05-10T09:35:22.657Z,91858.72
2023-05-10T09:37:50.936Z,91860.44
2023-05-10T09:40:19.057Z,91848.53
2023-05-10T09:42:55.724Z,91849.50
2023-05-10T09:45:23.439Z,91850.72
2023-05-10T09:47:50.186Z,91852.69
2023-05-10T09:50:17.293Z,91845.56
2023-05-10T09:52:53.780Z,91845.31
2023-05-10T09:55:24.378Z,91841.75
2023-05-10T09:57:59.726Z,91838.97
2023-05-10T10:00:27.198Z,91839.25
2023-05-10T10:03:00.444Z,91836.69
2023-05-10T10:05:34.267Z,91839.63
2023-05-10T10:08:02.761Z,91835.59
2023-05-10T10:10:29.411Z,91834.09
2023-05-10T10:12:56.447Z,91844.41
2023-05-10T10:15:23.783Z,91832.41
2023-05-10T10:17:51.205Z,91825.84
2023-05-10T10:20:18.851Z,91829.84
2023-05-10T10:22:46.713Z,91828.53
2023-05-10T10:25:15.149Z,91831.34
2023-05-10T10:28:14.903Z,91836.66
2023-05-10T10:30:49.323Z,91830.97
2023-05-10T10:33:37.931Z,91823.63
2023-05-10T10:36:05.030Z,91829.53
2023-05-10T10:38:49.333Z,91828.53
2023-05-10T10:41:51.383Z,91825.78
2023-05-10T10:44:26.981Z,91824.63
2023-05-10T10:47:12.600Z,91833.41
2023-05-10T10:49:42.644Z,91834.47
2023-05-10T10:52:40.788Z,91830.16
2023-05-10T10:55:09.437Z,91830.75
2023-05-10T10:57:45.292Z,91831.97
2023-05-10T11:00:34.172Z,91827.75
2023-05-10T11:03:05.423Z,91834.97
2023-05-10T11:05:47.807Z,91834.47
2023-05-10T11:08:14.379Z,91840.88
2023-05-10T11:10:49.711Z,91844.22
2023-05-10T11:13:16.411Z,91838.16
2023-05-10T11:15:49.445Z,91829.41
2023-05-10T11:18:26.554Z,91829.72
2023-05-10T11:21:08.314Z,91826.91
2023-05-10T11:23:40.985Z,91828.25
2023-05-10T11:26:10.617Z,91826.69
2023-05-10T11:28:47.538Z,91827.56
2023-05-10T11:31:17.878Z,91827.50
2023-05-10T11:33:49.056Z,91830.41
2023-05-10T11:36:17.138Z,91829.75
2023-05-10T11:38:43.811Z,91832.78
2023-05-10T11:41:13.767Z,91839.25
2023-05-10T11:43:40.801Z,91832.66
2023-05-10T11:46:07.787Z,91836.47
2023-05-10T11:48:34.526Z,91829.69
2023-05-10T11:51:03.014Z,91828.69
2023-05-10T11:53:33.353Z,91832.41
2023-05-10T11:56:10.239Z,91822.44
2023-05-10T11:58:37.850Z,91825.28
2023-05-10T12:01:05.460Z,91834.81
2023-05-10T12:03:32.351Z,91831.19
2023-05-10T12:05:59.448Z,91832.34
2023-05-10T12:08:27.314Z,91830.66
2023-05-10T12:11:11.485Z,91830.97
2023-05-10T12:13:41.936Z,91833.56
2023-05-10T12:16:19.095Z,91829.59
2023-05-10T12:18:46.417Z,91833.53
2023-05-10T12:21:13.302Z,91834.66
2023-05-10T12:23:40.416Z,91816.47
2023-05-10T12:26:07.264Z,91821.28
2023-05-10T12:28:34.082Z,91817.06
2023-05-10T12:31:00.901Z,91809.84
2023-05-10T12:33:27.601Z,91807.59
2023-05-10T12:35:55.326Z,91801.69
2023-05-10T12:38:39.174Z,91805.03
2023-05-10T12:41:11.674Z,91789.72
2023-05-10T12:43:38.879Z,91801.47
2023-05-10T12:46:15.746Z,91790.03
2023-05-10T12:48:43.491Z,91790.13
2023-05-10T12:51:14.201Z,91795.41
2023-05-10T12:53:42.723Z,91796.53
2023-05-10T12:56:11.324Z,91800.81
2023-05-10T12:58:38.030Z,91796.53
2023-05-10T13:01:05.857Z,91796.88
2023-05-10T13:03:32.658Z,91793.91
2023-05-10T13:05:59.420Z,91800.59
2023-05-10T13:08:26.257Z,91790.34
2023-05-10T13:10:52.899Z,91788.69
2023-05-10T13:13:19.567Z,91790.34
2023-05-10T13:15:46.254Z,91781.41
2023-05-10T13:18:12.934Z,91774.63
2023-05-10T13:20:39.809Z,91776.44
2023-05-10T13:23:06.518Z,91770.41
2023-05-10T13:25:33.394Z,91763.84
2023-05-10T13:28:00.150Z,91770.34
2023-05-10T13:30:26.839Z,91765.50
2023-05-10T13:32:53.620Z,91764.13
2023-05-10T13:35:20.403Z,91749.97
2023-05-10T13:37:47.101Z,91750.34
2023-05-10T13:40:14.704Z,91754.31
2023-05-10T13:42:41.984Z,91753.38
2023-05-10T13:45:08.979Z,91751.25
2023-05-10T13:47:35.734Z,91757.16
2023-05-10T13:50:02.966Z,91757.91
2023-05-10T13:52:29.598Z,91750.56
2023-05-10T13:54:56.381Z,91754.25
2023-05-10T13:57:24.068Z,91752.28
2023-05-10T13:59:51.302Z,91758.50
2023-05-10T14:02:18.095Z,91751.69
2023-05-10T14:04:44.848Z,91749.97
2023-05-10T14:07:11.543Z,91753.56
2023-05-10T14:09:38.270Z,91752.88
2023-05-10T14:12:04.976Z,91745.78
2023-05-10T14:14:31.741Z,91751.13
2023-05-10T14:16:58.513Z,91753.38
2023-05-10T14:19:25.149Z,91743.00
2023-05-10T14:21:53.036Z,91744.94
2023-05-10T14:24:19.601Z,91738.88
2023-05-10T14:26:46.244Z,91747.81
2023-05-10T14:29:12.965Z,91743.56
2023-05-10T14:31:39.814Z,91752.00
2023-05-10T14:34:06.807Z,91749.69
2023-05-10T14:36:33.639Z,91756.19
2023-05-10T14:39:00.371Z,91765.13
2023-05-10T14:41:27.254Z,91758.03
2023-05-10T14:43:54.260Z,91757.81
2023-05-10T14:46:21.158Z,91756.66
2023-05-10T14:48:47.871Z,91760.16
2023-05-10T14:51:14.846Z,91761.22
2023-05-10T14:53:41.711Z,91765.69
2023-05-10T14:56:08.564Z,91761.22
2023-05-10T14:58:35.232Z,91762.91
2023-05-10T15:01:02.229Z,91759.88
2023-05-10T15:03:30.014Z,91760.06
2023-05-10T15:05:58.764Z,91764.25
2023-05-10T15:08:28.828Z,91754.44
2023-05-10T15:10:56.963Z,91762.38
2023-05-10T15:13:23.644Z,91750.75
2023-05-10T15:15:50.660Z,91751.34
2023-05-10T15:18:17.903Z,91751.34
2023-05-10T15:20:44.722Z,91755.13
2023-05-10T15:23:11.391Z,91750.34
2023-05-10T15:25:38.526Z,91754.63
2023-05-10T15:28:05.466Z,91751.16
2023-05-10T15:30:32.148Z,91745.63
2023-05-10T15:32:58.918Z,91740.06
2023-05-10T15:35:27.018Z,91747.03
2023-05-10T15:37:53.672Z,91748.41
2023-05-10T15:40:20.466Z,91745.31
2023-05-10T15:42:47.172Z,91740.53
2023-05-10T15:45:13.920Z,91738.59
2023-05-10T15:47:40.723Z,91738.41
2023-05-10T15:50:08.412Z,91740.59
2023-05-10T15:52:36.141Z,91740.81
2023-05-10T15:55:03.630Z,91745.06
2023-05-10T15:57:30.425Z,91746.25
2023-05-10T15:59:57.155Z,91740.63
2023-05-10T16:02:23.999Z,91740.06
2023-05-10T16:04:51.663Z,91741.03
2023-05-10T16:07:18.457Z,91743.16
2023-05-10T16:09:45.149Z,91738.31
2023-05-10T16:12:11.743Z,91747.41
2023-05-10T16:14:38.404Z,91751.28
2023-05-10T16:17:05.217Z,91745.28
2023-05-10T16:19:32.231Z,91746.66
2023-05-10T16:21:58.975Z,91745.19
2023-05-10T16:24:26.376Z,91745.97
2023-05-10T16:26:53.131Z,91748.41
2023-05-10T16:29:19.819Z,91748.50
2023-05-10T16:31:46.994Z,91753.81
2023-05-10T16:34:13.660Z,91755.47
2023-05-10T16:36:40.502Z,91748.97
2023-05-10T16:39:07.424Z,91751.81
2023-05-10T16:41:34.512Z,91747.19
2023-05-10T16:44:01.793Z,91751.66
2023-05-10T16:46:28.477Z,91750.22
2023-05-10T16:48:55.184Z,91750.72
2023-05-10T16:51:21.835Z,91754.13
2023-05-10T16:53:48.421Z,91749.63
2023-05-10T16:56:15.081Z,91743.69
2023-05-10T16:58:41.844Z,91749.88
2023-05-10T17:01:08.564Z,91750.56
2023-05-10T17:03:35.817Z,91748.75
2023-05-10T17:06:02.625Z,91750.91
2023-05-10T17:08:29.217Z,91746.63
2023-05-10T17:10:56.395Z,91747.94
2023-05-10T17:13:23.303Z,91744.25
2023-05-10T17:15:50.093Z,91753.78
2023-05-10T17:18:17.466Z,91758.00
2023-05-10T17:20:45.165Z,91759.97
2023-05-10T17:23:11.922Z,91760.97
2023-05-10T17:25:38.759Z,91750.75
2023-05-10T17:28:05.550Z,91755.66
2023-05-10T17:30:32.847Z,91760.19
2023-05-10T17:33:00.233Z,91758.50
2023-05-10T17:35:27.021Z,91760.41
2023-05-10T17:37:53.876Z,91762.94
2023-05-10T17:40:20.561Z,91774.09
2023-05-10T17:42:47.252Z,91758.09
2023-05-10T17:45:13.941Z,91766.28
2023-05-10T17:47:40.691Z,91769.19
2023-05-10T17:50:07.596Z,91775.19
2023-05-10T17:52:34.299Z,91777.28
2023-05-10T17:55:01.017Z,91771.00
2023-05-10T17:57:28.130Z,91776.00
2023-05-10T17:59:54.863Z,91770.75
2023-05-10T18:02:21.549Z,91777.66
2023-05-10T18:04:49.436Z,91779.25
2023-05-10T18:07:16.551Z,91786.66
2023-05-10T18:09:43.237Z,91789.91
2023-05-10T18:12:09.821Z,91790.34
2023-05-10T18:14:41.244Z,91792.19
2023-05-10T18:17:09.272Z,91792.88
2023-05-10T18:19:36.069Z,91793.69
2023-05-10T18:22:02.859Z,91799.59
2023-05-10T18:26:59.156Z,91795.84
2023-05-10T18:29:26.088Z,91788.28
2023-05-10T18:31:52.784Z,91794.84
2023-05-10T18:34:19.399Z,91787.34
2023-05-10T18:36:46.361Z,91800.38
2023-05-10T18:39:13.351Z,91801.91
2023-05-10T18:41:40.090Z,91807.19
2023-05-10T18:44:06.719Z,91805.22
2023-05-10T18:46:33.792Z,91804.75
2023-05-10T18:49:00.513Z,91810.09
2023-05-10T18:51:29.573Z,91805.59
2023-05-10T18:53:56.354Z,91805.13
2023-05-10T18:56:23.768Z,91802.63
2023-05-10T18:58:50.368Z,91799.22
2023-05-10T19:01:17.189Z,91804.75
2023-05-10T19:03:43.824Z,91806.19
2023-05-10T19:06:10.948Z,91799.63
2023-05-10T19:08:37.707Z,91800.97
2023-05-10T19:11:04.366Z,91804.59
2023-05-10T19:13:31.157Z,91804.22
2023-05-10T19:16:10.927Z,91810.06
2023-05-10T19:18:39.398Z,91811.28
2023-05-10T19:21:10.439Z,91816.94
2023-05-10T19:23:39.663Z,91814.91
2023-05-10T19:26:06.395Z,91810.41
2023-05-10T19:28:34.215Z,91813.34
2023-05-10T19:31:01.828Z,91816.88
2023-05-10T19:33:28.745Z,91806.84
2023-05-10T19:35:55.675Z,91811.72
2023-05-10T19:38:22.962Z,91802.16
2023-05-10T19:40:59.557Z,91810.06
2023-05-10T19:43:26.810Z,91806.72
2023-05-10T19:45:53.995Z,91802.81
2023-05-10T19:48:20.735Z,91801.47
2023-05-10T19:50:47.327Z,91804.97
2023-05-10T19:53:14.080Z,91814.97
2023-05-10T19:55:40.789Z,91810.66
2023-05-10T19:58:07.381Z,91808.97
2023-05-10T20:00:34.207Z,91810.06
2023-05-10T20:03:01.319Z,91794.50
2023-05-10T20:05:28.818Z,91805.75
2023-05-10T20:07:55.501Z,91806.38
2023-05-10T20:10:22.113Z,91798.16
2023-05-10T20:12:52.891Z,91795.00
2023-05-10T20:15:21.067Z,91797.44
2023-05-10T20:17:48.090Z,91800.72
2023-05-10T20:20:16.630Z,91802.56
2023-05-10T20:22:47.172Z,91793.16
2023-05-10T20:25:14.339Z,91793.78
2023-05-10T20:27:41.000Z,91797.81
2023-05-10T20:30:08.071Z,91806.38
2023-05-10T20:32:34.813Z,91795.66
2023-05-10T20:35:01.633Z,91794.31
2023-05-10T20:37:28.730Z,91794.06
2023-05-10T20:39:55.600Z,91791.66
2023-05-10T20:42:22.401Z,91786.69
2023-05-10T20:44:49.889Z,91796.84
2023-05-10T20:47:16.708Z,91794.94
2023-05-10T20:49:43.700Z,91793.06
2023-05-10T20:52:10.403Z,91788.03
2023-05-10T20:54:37.113Z,91788.13
2023-05-10T20:57:03.902Z,91794.50
2023-05-10T20:59:30.641Z,91798.63
2023-05-10T21:01:57.701Z,91794.69
2023-05-10T21:04:25.583Z,91801.44
2023-05-10T21:06:53.074Z,91807.78
2023-05-10T21:09:19.811Z,91798.16
2023-05-10T21:11:46.641Z,91789.47
2023-05-10T21:14:13.251Z,91792.50
2023-05-10T21:16:40.162Z,91791.13
2023-05-10T21:19:09.662Z,91784.09
2023-05-10T21:21:36.423Z,91798.09
2023-05-10T21:24:03.309Z,91795.63
2023-05-10T21:26:29.952Z,91792.31
2023-05-10T21:28:56.628Z,91796.91
2023-05-10T21:31:23.443Z,91801.00
2023-05-10T21:33:50.263Z,91792.19
2023-05-10T21:36:16.893Z,91797.66
2023-05-10T21:38:44.553Z,91793.25
2023-05-10T21:41:11.250Z,91789.47
2023-05-10T21:43:38.049Z,91795.72
2023-05-10T21:46:04.814Z,91796.22
2023-05-10T21:48:31.486Z,91791.59
2023-05-10T21:50:58.848Z,91785.78
2023-05-10T21:53:25.485Z,91779.84
2023-05-10T21:55:52.314Z,91777.72
2023-05-10T21:58:19.012Z,91779.25
2023-05-10T22:00:45.620Z,91778.81
2023-05-10T22:03:12.415Z,91781.88
2023-05-10T22:05:39.286Z,91774.84
2023-05-10T22:08:06.582Z,91773.03
2023-05-10T22:10:33.387Z,91772.22
2023-05-10T22:13:00.364Z,91772.72
2023-05-10T22:15:27.215Z,91769.19
2023-05-10T22:17:54.020Z,91774.59
2023-05-10T22:20:21.209Z,91780.84
2023-05-10T22:22:47.930Z,91768.75
2023-05-10T22:25:14.741Z,91777.63
2023-05-10T22:27:41.490Z,91781.47
2023-05-10T22:30:08.697Z,91779.59
2023-05-10T22:32:35.460Z,91775.63
2023-05-10T22:35:02.378Z,91769.19
2023-05-10T22:37:29.078Z,91777.03
2023-05-10T22:39:55.755Z,91771.22
2023-05-10T22:42:22.367Z,91771.00
2023-05-10T22:44:49.012Z,91776.75
2023-05-10T22:47:16.487Z,91775.41
2023-05-10T22:49:43.140Z,91785.50
2023-05-10T22:52:10.838Z,91772.38
2023-05-10T22:54:37.472Z,91774.59
2023-05-10T22:57:04.153Z,91776.38
2023-05-10T22:59:30.967Z,91779.78
2023-05-10T23:01:57.667Z,91775.59
2023-05-10T23:04:24.298Z,91770.38
2023-05-10T23:06:50.994Z,91768.34
2023-05-10T23:09:17.582Z,91775.88
2023-05-10T23:11:44.278Z,91771.56
2023-05-10T23:14:11.047Z,91778.19
2023-05-10T23:16:37.772Z,91771.84
2023-05-10T23:19:04.595Z,91782.00
2023-05-10T23:21:32.251Z,91768.59
2023-05-10T23:23:59.395Z,91772.81
2023-05-10T23:26:26.015Z,91776.63
2023-05-10T23:28:52.651Z,91770.50
2023-05-10T23:31:19.378Z,91770.16
2023-05-10T23:33:46.159Z,91764.97
2023-05-10T23:36:12.772Z,91760.66
2023-05-10T23:38:39.654Z,91762.97
2023-05-10T23:41:06.280Z,91769.47
2023-05-10T23:43:32.921Z,91766.78
2023-05-10T23:45:59.732Z,91762.41
2023-05-10T23:48:26.411Z,91766.28
2023-05-10T23:50:53.105Z,91771.81
2023-05-10T23:53:19.859Z,91766.47
2023-05-10T23:55:46.831Z,91767.28
2023-05-10T23:58:13.469Z,91767.97
